KLBF

North Platte Regional Lee Bird Field Airport

North Platte, Nebraska, USA
METAR KLBF 241200Z AUTO 11005KT 1 1/4SM -SN BR BKN007 OVC010 M07/M08 A2988 RMK AO2 P0000 T10671078
Observed Flight Rules
Feb-24 @ 12:00 UTC (21 minutes ago) Instrument Flight Rules
Wind Visibility Clouds Conditions
110° at 5 knots 1 1/4 miles
  • Broken at 700' AGL
  • Overcast at 1,000' AGL
  • Light Snow
  • Mist
Temperatures Readings Precipitation
Current -7°C / 19°F
Dewpoint -8°C / 18°F
Humidity 93%
Altimeter 29.88" Hg
Pressure 1012 hPa
Elevation 847
Current Rain 0.005
METAR KLBF 241200Z AUTO 11005KT 1 1/4SM -SN BR BKN007 OVC010 M07/M08 A2988 RMK AO2 P0000 T10671078
Observed Flight Rules
Feb-24 @ 12:00 UTC
(21 minutes ago)
IFR
Wind Visibility
110° at 5 knots 1 1/4 miles
Clouds
  • Broken at 700' AGL
  • Overcast at 1,000' AGL
Conditions
  • Light Snow
  • Mist
Temperature Dewpoint
-7°C / 19°F -8°C / 18°F
Humidity Altimeter Pressure
93% 29.88" Hg 1012 hPa
Current Rain
0.005